sensor_id;sensor_type;location;lat;lon;timestamp;pressure;altitude;pressure_sealevel;temperature;humidity
64827;BME280;51265;53.972;12.286;2022-10-16T00:00:36;100383.38;;;11.96;100.00
64827;BME280;51265;53.972;12.286;2022-10-16T00:03:02;100387.44;;;11.99;100.00
64827;BME280;51265;53.972;12.286;2022-10-16T00:05:29;100397.47;;;11.94;100.00
64827;BME280;51265;53.972;12.286;2022-10-16T00:07:54;100410.78;;;11.92;100.00
64827;BME280;51265;53.972;12.286;2022-10-16T00:10:21;100416.19;;;11.98;100.00
64827;BME280;51265;53.972;12.286;2022-10-16T00:12:46;100409.31;;;11.95;100.00
64827;BME280;51265;53.972;12.286;2022-10-16T00:15:13;100417.50;;;12.00;100.00
64827;BME280;51265;53.972;12.286;2022-10-16T00:17:38;100426.59;;;12.01;100.00
64827;BME280;51265;53.972;12.286;2022-10-16T00:20:05;100429.97;;;11.98;100.00
64827;BME280;51265;53.972;12.286;2022-10-16T00:22:31;100439.31;;;11.88;100.00
64827;BME280;51265;53.972;12.286;2022-10-16T00:24:56;100445.56;;;11.80;100.00
64827;BME280;51265;53.972;12.286;2022-10-16T00:27:22;100449.97;;;11.67;100.00
64827;BME280;51265;53.972;12.286;2022-10-16T00:29:52;100446.81;;;11.60;100.00
64827;BME280;51265;53.972;12.286;2022-10-16T00:32:19;100441.44;;;11.55;100.00
64827;BME280;51265;53.972;12.286;2022-10-16T00:34:45;100453.59;;;11.54;100.00
64827;BME280;51265;53.972;12.286;2022-10-16T00:37:13;100462.97;;;11.53;100.00
64827;BME280;51265;53.972;12.286;2022-10-16T00:39:38;100471.34;;;11.47;100.00
64827;BME280;51265;53.972;12.286;2022-10-16T00:42:04;100473.09;;;11.43;100.00
64827;BME280;51265;53.972;12.286;2022-10-16T00:44:57;100471.97;;;11.44;100.00
64827;BME280;51265;53.972;12.286;2022-10-16T00:47:27;100487.91;;;11.47;100.00
64827;BME280;51265;53.972;12.286;2022-10-16T00:50:13;100489.44;;;11.54;100.00
64827;BME280;51265;53.972;12.286;2022-10-16T00:52:44;100489.44;;;11.54;100.00
64827;BME280;51265;53.972;12.286;2022-10-16T00:55:12;100501.59;;;11.53;100.00
64827;BME280;51265;53.972;12.286;2022-10-16T00:57:39;100504.34;;;11.53;100.00
64827;BME280;51265;53.972;12.286;2022-10-16T01:00:07;100510.16;;;11.51;100.00
64827;BME280;51265;53.972;12.286;2022-10-16T01:02:33;100512.69;;;11.61;100.00
64827;BME280;51265;53.972;12.286;2022-10-16T01:04:59;100522.19;;;11.69;100.00
64827;BME280;51265;53.972;12.286;2022-10-16T01:07:47;100529.94;;;11.81;100.00
64827;BME280;51265;53.972;12.286;2022-10-16T01:10:35;100531.31;;;11.83;100.00
64827;BME280;51265;53.972;12.286;2022-10-16T01:13:09;100529.75;;;11.77;100.00
64827;BME280;51265;53.972;12.286;2022-10-16T01:15:50;100545.13;;;11.83;100.00
64827;BME280;51265;53.972;12.286;2022-10-16T01:18:33;100548.38;;;11.85;100.00
64827;BME280;51265;53.972;12.286;2022-10-16T01:21:08;100543.38;;;11.87;100.00
64827;BME280;51265;53.972;12.286;2022-10-16T01:23:47;100551.34;;;11.89;100.00
64827;BME280;51265;53.972;12.286;2022-10-16T01:29:25;100567.38;;;11.87;100.00
64827;BME280;51265;53.972;12.286;2022-10-16T01:31:59;100564.50;;;11.78;100.00
64827;BME280;51265;53.972;12.286;2022-10-16T01:34:35;100570.00;;;11.78;100.00
64827;BME280;51265;53.972;12.286;2022-10-16T01:37:06;100578.81;;;11.80;100.00
64827;BME280;51265;53.972;12.286;2022-10-16T01:39:55;100577.59;;;11.86;100.00
64827;BME280;51265;53.972;12.286;2022-10-16T01:42:29;100594.56;;;11.93;100.00
64827;BME280;51265;53.972;12.286;2022-10-16T01:44:56;100597.84;;;11.95;100.00
64827;BME280;51265;53.972;12.286;2022-10-16T01:47:25;100601.50;;;11.91;100.00
64827;BME280;51265;53.972;12.286;2022-10-16T01:49:53;100603.97;;;11.92;100.00
64827;BME280;51265;53.972;12.286;2022-10-16T01:52:23;100599.59;;;11.91;100.00
64827;BME280;51265;53.972;12.286;2022-10-16T01:54:53;100613.19;;;11.88;100.00
64827;BME280;51265;53.972;12.286;2022-10-16T01:57:21;100608.16;;;11.90;100.00
64827;BME280;51265;53.972;12.286;2022-10-16T01:59:52;100615.63;;;11.89;100.00
64827;BME280;51265;53.972;12.286;2022-10-16T02:02:22;100621.34;;;11.93;100.00
64827;BME280;51265;53.972;12.286;2022-10-16T02:07:52;100616.03;;;11.96;100.00
64827;BME280;51265;53.972;12.286;2022-10-16T02:10:18;100616.03;;;11.96;100.00
64827;BME280;51265;53.972;12.286;2022-10-16T02:12:50;100617.66;;;11.98;100.00
64827;BME280;51265;53.972;12.286;2022-10-16T02:15:21;100612.13;;;11.98;100.00
64827;BME280;51265;53.972;12.286;2022-10-16T02:17:46;100605.00;;;11.96;100.00
64827;BME280;51265;53.972;12.286;2022-10-16T02:20:13;100591.47;;;11.95;100.00
64827;BME280;51265;53.972;12.286;2022-10-16T02:22:45;100579.84;;;11.84;100.00
64827;BME280;51265;53.972;12.286;2022-10-16T02:25:19;100567.97;;;11.70;100.00
64827;BME280;51265;53.972;12.286;2022-10-16T02:27:54;100568.19;;;11.60;100.00
64827;BME280;51265;53.972;12.286;2022-10-16T02:30:33;100561.22;;;11.48;100.00
64827;BME280;51265;53.972;12.286;2022-10-16T02:33:02;100565.22;;;11.42;100.00
64827;BME280;51265;53.972;12.286;2022-10-16T02:35:31;100563.69;;;11.36;100.00
64827;BME280;51265;53.972;12.286;2022-10-16T02:37:58;100565.72;;;11.31;100.00
64827;BME280;51265;53.972;12.286;2022-10-16T02:40:25;100568.28;;;11.27;100.00
64827;BME280;51265;53.972;12.286;2022-10-16T02:42:53;100566.13;;;11.24;100.00
64827;BME280;51265;53.972;12.286;2022-10-16T02:45:20;100557.34;;;11.22;100.00
64827;BME280;51265;53.972;12.286;2022-10-16T02:47:46;100556.22;;;11.23;100.00
64827;BME280;51265;53.972;12.286;2022-10-16T02:50:12;100567.13;;;11.28;100.00
64827;BME280;51265;53.972;12.286;2022-10-16T02:52:38;100577.34;;;11.28;100.00
64827;BME280;51265;53.972;12.286;2022-10-16T02:55:04;100576.38;;;11.37;100.00
64827;BME280;51265;53.972;12.286;2022-10-16T02:57:30;100583.94;;;11.45;100.00
64827;BME280;51265;53.972;12.286;2022-10-16T02:59:58;100588.59;;;11.45;100.00
64827;BME280;51265;53.972;12.286;2022-10-16T03:02:24;100587.56;;;11.41;100.00
64827;BME280;51265;53.972;12.286;2022-10-16T03:04:49;100596.16;;;11.39;100.00
64827;BME280;51265;53.972;12.286;2022-10-16T03:07:15;100590.75;;;11.34;100.00
64827;BME280;51265;53.972;12.286;2022-10-16T03:09:41;100584.53;;;11.29;100.00
64827;BME280;51265;53.972;12.286;2022-10-16T03:12:07;100591.03;;;11.19;100.00
64827;BME280;51265;53.972;12.286;2022-10-16T03:14:34;100588.38;;;11.14;100.00
64827;BME280;51265;53.972;12.286;2022-10-16T03:17:00;100586.31;;;11.06;100.00
64827;BME280;51265;53.972;12.286;2022-10-16T03:19:26;100590.78;;;11.02;100.00
64827;BME280;51265;53.972;12.286;2022-10-16T03:21:52;100581.50;;;10.97;100.00
64827;BME280;51265;53.972;12.286;2022-10-16T03:24:17;100592.28;;;10.94;100.00
64827;BME280;51265;53.972;12.286;2022-10-16T03:26:43;100591.25;;;10.90;100.00
64827;BME280;51265;53.972;12.286;2022-10-16T03:29:09;100590.75;;;10.88;100.00
64827;BME280;51265;53.972;12.286;2022-10-16T03:31:35;100592.16;;;10.85;100.00
64827;BME280;51265;53.972;12.286;2022-10-16T03:34:01;100593.00;;;10.86;100.00
64827;BME280;51265;53.972;12.286;2022-10-16T03:36:27;100595.47;;;10.87;100.00
64827;BME280;51265;53.972;12.286;2022-10-16T03:38:53;100597.69;;;10.85;100.00
64827;BME280;51265;53.972;12.286;2022-10-16T03:41:19;100601.03;;;10.82;100.00
64827;BME280;51265;53.972;12.286;2022-10-16T03:43:45;100604.91;;;10.81;100.00
64827;BME280;51265;53.972;12.286;2022-10-16T03:46:10;100603.78;;;10.82;100.00
64827;BME280;51265;53.972;12.286;2022-10-16T03:48:36;100615.44;;;10.79;100.00
64827;BME280;51265;53.972;12.286;2022-10-16T03:51:02;100619.28;;;10.78;100.00
64827;BME280;51265;53.972;12.286;2022-10-16T03:53:29;100628.66;;;10.77;100.00
64827;BME280;51265;53.972;12.286;2022-10-16T03:55:55;100631.44;;;10.77;100.00
64827;BME280;51265;53.972;12.286;2022-10-16T03:58:20;100634.41;;;10.81;100.00
64827;BME280;51265;53.972;12.286;2022-10-16T04:00:46;100630.53;;;10.82;100.00
64827;BME280;51265;53.972;12.286;2022-10-16T04:03:15;100628.91;;;10.81;100.00
64827;BME280;51265;53.972;12.286;2022-10-16T04:05:41;100627.50;;;10.83;100.00
64827;BME280;51265;53.972;12.286;2022-10-16T04:08:07;100632.47;;;10.81;100.00
64827;BME280;51265;53.972;12.286;2022-10-16T04:10:33;100641.13;;;10.75;100.00
64827;BME280;51265;53.972;12.286;2022-10-16T04:12:59;100637.09;;;10.67;100.00
64827;BME280;51265;53.972;12.286;2022-10-16T04:15:25;100635.03;;;10.59;100.00
64827;BME280;51265;53.972;12.286;2022-10-16T04:17:51;100633.22;;;10.49;100.00
64827;BME280;51265;53.972;12.286;2022-10-16T04:20:17;100633.06;;;10.40;100.00
64827;BME280;51265;53.972;12.286;2022-10-16T04:22:44;100639.25;;;10.32;100.00
64827;BME280;51265;53.972;12.286;2022-10-16T04:25:10;100638.19;;;10.28;100.00
64827;BME280;51265;53.972;12.286;2022-10-16T04:27:38;100632.19;;;10.26;100.00
64827;BME280;51265;53.972;12.286;2022-10-16T04:30:05;100636.94;;;10.20;100.00
64827;BME280;51265;53.972;12.286;2022-10-16T04:32:30;100646.06;;;10.16;100.00
64827;BME280;51265;53.972;12.286;2022-10-16T04:34:56;100641.72;;;10.10;100.00
64827;BME280;51265;53.972;12.286;2022-10-16T04:37:26;100638.47;;;10.08;100.00
64827;BME280;51265;53.972;12.286;2022-10-16T04:39:53;100646.78;;;10.03;100.00
64827;BME280;51265;53.972;12.286;2022-10-16T04:42:19;100649.81;;;10.01;100.00
64827;BME280;51265;53.972;12.286;2022-10-16T04:44:45;100653.16;;;9.98;100.00
64827;BME280;51265;53.972;12.286;2022-10-16T04:47:11;100648.53;;;9.93;100.00
64827;BME280;51265;53.972;12.286;2022-10-16T04:49:38;100650.72;;;9.96;100.00
64827;BME280;51265;53.972;12.286;2022-10-16T04:52:04;100650.41;;;9.98;100.00
64827;BME280;51265;53.972;12.286;2022-10-16T04:54:30;100661.78;;;9.91;100.00
64827;BME280;51265;53.972;12.286;2022-10-16T04:56:56;100656.03;;;9.88;100.00
64827;BME280;51265;53.972;12.286;2022-10-16T04:59:23;100657.97;;;9.87;100.00
64827;BME280;51265;53.972;12.286;2022-10-16T05:01:49;100651.94;;;9.85;100.00
64827;BME280;51265;53.972;12.286;2022-10-16T05:04:15;100651.44;;;9.83;100.00
64827;BME280;51265;53.972;12.286;2022-10-16T05:06:42;100651.50;;;9.78;100.00
64827;BME280;51265;53.972;12.286;2022-10-16T05:09:08;100649.81;;;9.77;100.00
64827;BME280;51265;53.972;12.286;2022-10-16T05:11:34;100655.88;;;9.79;100.00
64827;BME280;51265;53.972;12.286;2022-10-16T05:14:00;100655.88;;;9.79;100.00
64827;BME280;51265;53.972;12.286;2022-10-16T05:16:26;100663.50;;;9.82;100.00
64827;BME280;51265;53.972;12.286;2022-10-16T05:18:53;100660.81;;;9.77;100.00
64827;BME280;51265;53.972;12.286;2022-10-16T05:21:20;100669.09;;;9.77;100.00
64827;BME280;51265;53.972;12.286;2022-10-16T05:23:46;100677.34;;;9.77;100.00
64827;BME280;51265;53.972;12.286;2022-10-16T05:26:11;100676.28;;;9.73;100.00
64827;BME280;51265;53.972;12.286;2022-10-16T05:28:37;100677.97;;;9.69;100.00
64827;BME280;51265;53.972;12.286;2022-10-16T05:31:08;100679.09;;;9.68;100.00
64827;BME280;51265;53.972;12.286;2022-10-16T05:33:34;100680.72;;;9.69;100.00
64827;BME280;51265;53.972;12.286;2022-10-16T05:36:05;100682.66;;;9.68;100.00
64827;BME280;51265;53.972;12.286;2022-10-16T05:38:34;100684.59;;;9.68;100.00
64827;BME280;51265;53.972;12.286;2022-10-16T05:41:00;100680.72;;;9.69;100.00
64827;BME280;51265;53.972;12.286;2022-10-16T05:43:27;100697.75;;;9.71;100.00
64827;BME280;51265;53.972;12.286;2022-10-16T05:45:58;100695.53;;;9.73;100.00
64827;BME280;51265;53.972;12.286;2022-10-16T05:48:24;100692.22;;;9.76;100.00
64827;BME280;51265;53.972;12.286;2022-10-16T05:50:59;100684.25;;;9.75;100.00
64827;BME280;51265;53.972;12.286;2022-10-16T05:53:27;100679.50;;;9.80;100.00
64827;BME280;51265;53.972;12.286;2022-10-16T05:55:53;100684.44;;;9.83;100.00
64827;BME280;51265;53.972;12.286;2022-10-16T05:58:20;100686.94;;;9.80;100.00
64827;BME280;51265;53.972;12.286;2022-10-16T06:01:16;100690.84;;;9.73;100.00
64827;BME280;51265;53.972;12.286;2022-10-16T06:03:43;100693.09;;;9.71;100.00
64827;BME280;51265;53.972;12.286;2022-10-16T06:06:13;100696.06;;;9.75;100.00
64827;BME280;51265;53.972;12.286;2022-10-16T06:08:41;100703.44;;;9.80;100.00
64827;BME280;51265;53.972;12.286;2022-10-16T06:11:09;100704.19;;;9.85;100.00
64827;BME280;51265;53.972;12.286;2022-10-16T06:13:35;100708.00;;;9.89;100.00
64827;BME280;51265;53.972;12.286;2022-10-16T06:16:03;100720.31;;;9.97;100.00
64827;BME280;51265;53.972;12.286;2022-10-16T06:18:30;100719.97;;;10.04;100.00
64827;BME280;51265;53.972;12.286;2022-10-16T06:20:57;100716.56;;;10.12;100.00
64827;BME280;51265;53.972;12.286;2022-10-16T06:23:23;100731.44;;;10.11;100.00
64827;BME280;51265;53.972;12.286;2022-10-16T06:25:49;100733.66;;;10.09;100.00
64827;BME280;51265;53.972;12.286;2022-10-16T06:28:18;100736.41;;;10.09;100.00
64827;BME280;51265;53.972;12.286;2022-10-16T06:30:43;100746.31;;;10.10;100.00
64827;BME280;51265;53.972;12.286;2022-10-16T06:33:10;100740.22;;;10.13;100.00
64827;BME280;51265;53.972;12.286;2022-10-16T06:35:36;100739.66;;;10.16;100.00
64827;BME280;51265;53.972;12.286;2022-10-16T06:38:02;100733.53;;;10.19;100.00
64827;BME280;51265;53.972;12.286;2022-10-16T06:40:28;100735.66;;;10.27;100.00
64827;BME280;51265;53.972;12.286;2022-10-16T06:42:57;100734.50;;;10.33;100.00
64827;BME280;51265;53.972;12.286;2022-10-16T06:45:23;100742.69;;;10.38;100.00
64827;BME280;51265;53.972;12.286;2022-10-16T06:47:49;100739.88;;;10.43;100.00
64827;BME280;51265;53.972;12.286;2022-10-16T06:50:14;100741.31;;;10.41;100.00
64827;BME280;51265;53.972;12.286;2022-10-16T06:52:40;100733.31;;;10.39;100.00
64827;BME280;51265;53.972;12.286;2022-10-16T06:55:06;100734.13;;;10.40;100.00
64827;BME280;51265;53.972;12.286;2022-10-16T06:57:32;100721.72;;;10.42;100.00
64827;BME280;51265;53.972;12.286;2022-10-16T06:59:58;100720.53;;;10.48;100.00
64827;BME280;51265;53.972;12.286;2022-10-16T07:02:24;100722.19;;;10.50;100.00
64827;BME280;51265;53.972;12.286;2022-10-16T07:04:50;100720.75;;;10.52;100.00
64827;BME280;51265;53.972;12.286;2022-10-16T07:07:16;100721.56;;;10.53;100.00
64827;BME280;51265;53.972;12.286;2022-10-16T07:09:41;100708.56;;;10.58;100.00
64827;BME280;51265;53.972;12.286;2022-10-16T07:12:07;100701.78;;;10.69;100.00
64827;BME280;51265;53.972;12.286;2022-10-16T07:14:33;100699.72;;;10.80;100.00
64827;BME280;51265;53.972;12.286;2022-10-16T07:16:59;100692.78;;;10.83;100.00
64827;BME280;51265;53.972;12.286;2022-10-16T07:19:25;100695.25;;;10.84;100.00
64827;BME280;51265;53.972;12.286;2022-10-16T07:21:51;100684.81;;;10.81;100.00
64827;BME280;51265;53.972;12.286;2022-10-16T07:24:16;100682.38;;;10.80;100.00
64827;BME280;51265;53.972;12.286;2022-10-16T07:26:44;100669.25;;;10.71;100.00
64827;BME280;51265;53.972;12.286;2022-10-16T07:29:19;100656.63;;;10.70;100.00
64827;BME280;51265;53.972;12.286;2022-10-16T07:31:46;100649.31;;;10.61;100.00
64827;BME280;51265;53.972;12.286;2022-10-16T07:34:14;100646.94;;;10.54;100.00
64827;BME280;51265;53.972;12.286;2022-10-16T07:36:40;100632.41;;;10.48;100.00
64827;BME280;51265;53.972;12.286;2022-10-16T07:39:06;100626.97;;;10.43;100.00
64827;BME280;51265;53.972;12.286;2022-10-16T07:41:32;100633.63;;;10.42;100.00
64827;BME280;51265;53.972;12.286;2022-10-16T07:43:58;100638.31;;;10.42;100.00
64827;BME280;51265;53.972;12.286;2022-10-16T07:46:28;100640.66;;;10.48;100.00
64827;BME280;51265;53.972;12.286;2022-10-16T07:48:54;100646.56;;;10.61;100.00
64827;BME280;51265;53.972;12.286;2022-10-16T07:51:22;100644.16;;;10.73;100.00
64827;BME280;51265;53.972;12.286;2022-10-16T07:53:48;100647.50;;;10.89;100.00
64827;BME280;51265;53.972;12.286;2022-10-16T07:56:15;100651.88;;;11.09;100.00
64827;BME280;51265;53.972;12.286;2022-10-16T07:58:41;100650.88;;;11.32;100.00
64827;BME280;51265;53.972;12.286;2022-10-16T08:01:10;100642.03;;;11.49;100.00
64827;BME280;51265;53.972;12.286;2022-10-16T08:03:36;100644.13;;;11.71;100.00
64827;BME280;51265;53.972;12.286;2022-10-16T08:06:02;100638.22;;;11.91;100.00
64827;BME280;51265;53.972;12.286;2022-10-16T08:08:29;100624.81;;;12.12;100.00
64827;BME280;51265;53.972;12.286;2022-10-16T08:10:55;100613.13;;;12.29;100.00
64827;BME280;51265;53.972;12.286;2022-10-16T08:13:21;100615.50;;;12.44;100.00
64827;BME280;51265;53.972;12.286;2022-10-16T08:15:47;100602.16;;;12.60;100.00
64827;BME280;51265;53.972;12.286;2022-10-16T08:18:15;100600.84;;;12.80;100.00
64827;BME280;51265;53.972;12.286;2022-10-16T08:20:44;100591.53;;;12.99;100.00
64827;BME280;51265;53.972;12.286;2022-10-16T08:23:11;100580.28;;;13.17;100.00
64827;BME280;51265;53.972;12.286;2022-10-16T08:25:39;100574.34;;;13.33;100.00
64827;BME280;51265;53.972;12.286;2022-10-16T08:28:06;100572.50;;;13.51;100.00
64827;BME280;51265;53.972;12.286;2022-10-16T08:30:33;100563.09;;;13.69;100.00
64827;BME280;51265;53.972;12.286;2022-10-16T08:32:59;100558.94;;;13.89;100.00
64827;BME280;51265;53.972;12.286;2022-10-16T08:35:28;100548.69;;;14.07;100.00
64827;BME280;51265;53.972;12.286;2022-10-16T08:37:54;100547.25;;;14.27;100.00
64827;BME280;51265;53.972;12.286;2022-10-16T08:40:23;100547.09;;;14.58;100.00
64827;BME280;51265;53.972;12.286;2022-10-16T08:43:09;100549.19;;;14.78;100.00
64827;BME280;51265;53.972;12.286;2022-10-16T08:45:58;100533.69;;;14.77;100.00
64827;BME280;51265;53.972;12.286;2022-10-16T08:51:05;100535.41;;;15.08;100.00
64827;BME280;51265;53.972;12.286;2022-10-16T08:53:38;100529.16;;;15.19;100.00
64827;BME280;51265;53.972;12.286;2022-10-16T08:56:08;100524.94;;;15.22;100.00
64827;BME280;51265;53.972;12.286;2022-10-16T08:58:34;100525.09;;;15.17;100.00
64827;BME280;51265;53.972;12.286;2022-10-16T09:01:03;100529.97;;;15.20;100.00
64827;BME280;51265;53.972;12.286;2022-10-16T09:04:12;100523.25;;;15.30;100.00
64827;BME280;51265;53.972;12.286;2022-10-16T09:06:55;100525.38;;;15.62;100.00
64827;BME280;51265;53.972;12.286;2022-10-16T09:09:38;100521.72;;;15.79;100.00
64827;BME280;51265;53.972;12.286;2022-10-16T09:12:20;100509.81;;;16.00;100.00
64827;BME280;51265;53.972;12.286;2022-10-16T09:20:42;100498.09;;;16.36;100.00
64827;BME280;51265;53.972;12.286;2022-10-16T09:23:16;100506.06;;;16.37;100.00
64827;BME280;51265;53.972;12.286;2022-10-16T09:25:46;100509.47;;;16.43;100.00
64827;BME280;51265;53.972;12.286;2022-10-16T09:28:13;100511.56;;;16.46;100.00
64827;BME280;51265;53.972;12.286;2022-10-16T09:30:39;100506.06;;;16.37;100.00
64827;BME280;51265;53.972;12.286;2022-10-16T09:33:05;100510.44;;;16.26;100.00
64827;BME280;51265;53.972;12.286;2022-10-16T09:35:44;100517.13;;;16.25;100.00
64827;BME280;51265;53.972;12.286;2022-10-16T09:38:33;100521.81;;;16.33;100.00
64827;BME280;51265;53.972;12.286;2022-10-16T09:41:22;100506.06;;;16.37;100.00
64827;BME280;51265;53.972;12.286;2022-10-16T09:43:59;100502.66;;;16.53;100.00
64827;BME280;51265;53.972;12.286;2022-10-16T09:46:32;100509.06;;;16.32;100.00
64827;BME280;51265;53.972;12.286;2022-10-16T09:48:59;100497.97;;;16.11;100.00
64827;BME280;51265;53.972;12.286;2022-10-16T09:51:31;100510.44;;;15.84;100.00
64827;BME280;51265;53.972;12.286;2022-10-16T09:54:00;100515.47;;;15.53;100.00
64827;BME280;51265;53.972;12.286;2022-10-16T09:56:28;100529.31;;;15.23;100.00
64827;BME280;51265;53.972;12.286;2022-10-16T09:59:01;100526.81;;;15.01;100.00
64827;BME280;51265;53.972;12.286;2022-10-16T10:01:36;100526.66;;;14.88;100.00
64827;BME280;51265;53.972;12.286;2022-10-16T10:04:04;100538.59;;;14.80;100.00
64827;BME280;51265;53.972;12.286;2022-10-16T10:06:33;100547.91;;;14.76;100.00
64827;BME280;51265;53.972;12.286;2022-10-16T10:09:02;100557.53;;;14.61;100.00
64827;BME280;51265;53.972;12.286;2022-10-16T10:11:48;100558.50;;;14.65;100.00
64827;BME280;51265;53.972;12.286;2022-10-16T10:22:00;100551.34;;;16.17;100.00
64827;BME280;51265;53.972;12.286;2022-10-16T10:24:26;100541.47;;;16.28;100.00
64827;BME280;51265;53.972;12.286;2022-10-16T10:27:15;100530.41;;;16.40;100.00
64827;BME280;51265;53.972;12.286;2022-10-16T10:30:04;100523.84;;;16.45;100.00
64827;BME280;51265;53.972;12.286;2022-10-16T10:35:42;100535.34;;;16.56;100.00
64827;BME280;51265;53.972;12.286;2022-10-16T10:38:21;100519.13;;;16.58;100.00
64827;BME280;51265;53.972;12.286;2022-10-16T10:41:15;100525.41;;;16.67;100.00
64827;BME280;51265;53.972;12.286;2022-10-16T10:46:32;100519.28;;;16.95;100.00
64827;BME280;51265;53.972;12.286;2022-10-16T10:49:07;100522.75;;;16.91;100.00
64827;BME280;51265;53.972;12.286;2022-10-16T10:52:13;100542.03;;;17.09;100.00
64827;BME280;51265;53.972;12.286;2022-10-16T10:54:53;100519.53;;;17.26;100.00
64827;BME280;51265;53.972;12.286;2022-10-16T10:57:30;100515.84;;;17.34;100.00
64827;BME280;51265;53.972;12.286;2022-10-16T11:00:13;100507.50;;;17.34;100.00
64827;BME280;51265;53.972;12.286;2022-10-16T11:02:48;100498.47;;;17.50;100.00
64827;BME280;51265;53.972;12.286;2022-10-16T11:07:59;100516.44;;;17.64;100.00
64827;BME280;51265;53.972;12.286;2022-10-16T11:10:30;100484.09;;;17.48;100.00
64827;BME280;51265;53.972;12.286;2022-10-16T11:13:15;100485.47;;;17.41;100.00
64827;BME280;51265;53.972;12.286;2022-10-16T11:15:44;100499.63;;;17.36;100.00
64827;BME280;51265;53.972;12.286;2022-10-16T11:18:20;100515.03;;;17.22;100.00
64827;BME280;51265;53.972;12.286;2022-10-16T11:20:57;100506.56;;;17.42;100.00
64827;BME280;51265;53.972;12.286;2022-10-16T11:23:29;100493.00;;;17.65;100.00
64827;BME280;51265;53.972;12.286;2022-10-16T11:26:00;100487.44;;;17.65;100.00
64827;BME280;51265;53.972;12.286;2022-10-16T11:28:33;100505.53;;;17.84;100.00
64827;BME280;51265;53.972;12.286;2022-10-16T11:31:14;100505.03;;;18.06;100.00
64827;BME280;51265;53.972;12.286;2022-10-16T11:33:59;100495.34;;;18.16;100.00
64827;BME280;51265;53.972;12.286;2022-10-16T11:41:29;100487.00;;;18.16;100.00
64827;BME280;51265;53.972;12.286;2022-10-16T11:44:19;100485.63;;;18.38;100.00
64827;BME280;51265;53.972;12.286;2022-10-16T11:46:52;100482.28;;;18.32;100.00
64827;BME280;51265;53.972;12.286;2022-10-16T11:49:26;100461.41;;;18.26;100.00
64827;BME280;51265;53.972;12.286;2022-10-16T11:52:06;100470.63;;;18.42;100.00
64827;BME280;51265;53.972;12.286;2022-10-16T11:57:19;100459.56;;;18.18;100.00
64827;BME280;51265;53.972;12.286;2022-10-16T11:59:57;100425.03;;;18.07;97.19
64827;BME280;51265;53.972;12.286;2022-10-16T12:03:36;100441.13;;;17.85;100.00
64827;BME280;51265;53.972;12.286;2022-10-16T12:05:39;100446.81;;;17.64;100.00
64827;BME280;51265;53.972;12.286;2022-10-16T12:08:15;100464.78;;;17.91;100.00
64827;BME280;51265;53.972;12.286;2022-10-16T12:10:44;100459.38;;;18.11;100.00
64827;BME280;51265;53.972;12.286;2022-10-16T12:13:39;100438.88;;;17.91;100.00
64827;BME280;51265;53.972;12.286;2022-10-16T12:18:43;100452.34;;;17.89;99.88
64827;BME280;51265;53.972;12.286;2022-10-16T12:21:10;100448.34;;;17.74;100.00
64827;BME280;51265;53.972;12.286;2022-10-16T12:23:50;100468.97;;;17.85;100.00
64827;BME280;51265;53.972;12.286;2022-10-16T12:26:25;100465.28;;;17.81;100.00
64827;BME280;51265;53.972;12.286;2022-10-16T12:28:52;100481.63;;;17.83;100.00
64827;BME280;51265;53.972;12.286;2022-10-16T12:31:18;100475.66;;;17.97;100.00
64827;BME280;51265;53.972;12.286;2022-10-16T12:33:58;100489.16;;;17.95;100.00
64827;BME280;51265;53.972;12.286;2022-10-16T12:36:32;100439.97;;;17.50;100.00
64827;BME280;51265;53.972;12.286;2022-10-16T12:38:59;100466.22;;;17.36;100.00
64827;BME280;51265;53.972;12.286;2022-10-16T12:41:33;100478.97;;;17.50;100.00
64827;BME280;51265;53.972;12.286;2022-10-16T12:44:00;100498.69;;;17.45;100.00
64827;BME280;51265;53.972;12.286;2022-10-16T12:49:22;100487.31;;;17.13;100.00
64827;BME280;51265;53.972;12.286;2022-10-16T12:51:50;100467.72;;;16.97;100.00
64827;BME280;51265;53.972;12.286;2022-10-16T12:54:37;100475.97;;;17.06;100.00
64827;BME280;51265;53.972;12.286;2022-10-16T12:57:30;100484.31;;;17.06;100.00
64827;BME280;51265;53.972;12.286;2022-10-16T13:00:17;100493.69;;;17.13;100.00
64827;BME280;51265;53.972;12.286;2022-10-16T13:03:27;100501.00;;;17.18;100.00
64827;BME280;51265;53.972;12.286;2022-10-16T13:09:10;100527.91;;;17.26;100.00
64827;BME280;51265;53.972;12.286;2022-10-16T13:15:07;100519.22;;;17.28;99.09
64827;BME280;51265;53.972;12.286;2022-10-16T13:18:21;100510.88;;;17.52;97.70
64827;BME280;51265;53.972;12.286;2022-10-16T13:26:49;100491.03;;;17.54;91.70
64827;BME280;51265;53.972;12.286;2022-10-16T13:29:19;100502.28;;;17.57;91.59
64827;BME280;51265;53.972;12.286;2022-10-16T13:31:45;100489.16;;;17.70;89.22
64827;BME280;51265;53.972;12.286;2022-10-16T13:34:17;100505.75;;;17.66;90.64
64827;BME280;51265;53.972;12.286;2022-10-16T13:36:45;100487.78;;;17.52;87.82
64827;BME280;51265;53.972;12.286;2022-10-16T13:39:23;100496.34;;;17.47;88.50
64827;BME280;51265;53.972;12.286;2022-10-16T13:42:13;100487.78;;;17.27;87.80
64827;BME280;51265;53.972;12.286;2022-10-16T13:44:43;100504.59;;;17.18;90.58